sensor_id;sensor_type;location;lat;lon;timestamp;pressure;altitude;pressure_sealevel;temperature;humidity
21153;BME280;10734;44.792;20.482;2022-07-23T00:00:17;99859.03;;;26.54;44.98
21153;BME280;10734;44.792;20.482;2022-07-23T00:02:44;99865.38;;;26.55;44.98
21153;BME280;10734;44.792;20.482;2022-07-23T00:05:11;99864.28;;;26.56;44.59
21153;BME280;10734;44.792;20.482;2022-07-23T00:07:38;99859.84;;;26.55;44.60
21153;BME280;10734;44.792;20.482;2022-07-23T00:10:05;99866.69;;;26.47;44.57
21153;BME280;10734;44.792;20.482;2022-07-23T00:12:33;99861.94;;;26.43;44.58
21153;BME280;10734;44.792;20.482;2022-07-23T00:14:59;99862.97;;;26.36;44.26
21153;BME280;10734;44.792;20.482;2022-07-23T00:17:26;99870.59;;;26.24;44.77
21153;BME280;10734;44.792;20.482;2022-07-23T00:19:53;99866.63;;;26.15;45.40
21153;BME280;10734;44.792;20.482;2022-07-23T00:22:20;99872.16;;;26.15;45.50
21153;BME280;10734;44.792;20.482;2022-07-23T00:24:47;99880.34;;;26.10;45.73
21153;BME280;10734;44.792;20.482;2022-07-23T00:27:33;99868.84;;;25.96;46.07
21153;BME280;10734;44.792;20.482;2022-07-23T00:30:00;99878.13;;;25.68;47.24
21153;BME280;10734;44.792;20.482;2022-07-23T00:32:27;99872.84;;;25.44;47.89
21153;BME280;10734;44.792;20.482;2022-07-23T00:35:13;99876.28;;;25.51;47.97
21153;BME280;10734;44.792;20.482;2022-07-23T00:37:42;99876.34;;;25.56;47.97
21153;BME280;10734;44.792;20.482;2022-07-23T00:40:10;99868.78;;;25.69;48.00
21153;BME280;10734;44.792;20.482;2022-07-23T00:42:38;99871.09;;;25.77;47.22
21153;BME280;10734;44.792;20.482;2022-07-23T00:45:05;99873.41;;;25.85;47.39
21153;BME280;10734;44.792;20.482;2022-07-23T00:47:32;99870.22;;;25.93;46.64
21153;BME280;10734;44.792;20.482;2022-07-23T00:49:59;99869.69;;;25.96;46.53
21153;BME280;10734;44.792;20.482;2022-07-23T00:52:26;99876.03;;;25.97;46.11
21153;BME280;10734;44.792;20.482;2022-07-23T00:54:53;99878.06;;;26.01;46.11
21153;BME280;10734;44.792;20.482;2022-07-23T00:57:20;99868.53;;;25.92;45.97
21153;BME280;10734;44.792;20.482;2022-07-23T00:59:54;99871.81;;;25.89;46.28
21153;BME280;10734;44.792;20.482;2022-07-23T01:02:20;99869.56;;;25.86;46.21
21153;BME280;10734;44.792;20.482;2022-07-23T01:04:47;99871.22;;;25.87;46.22
21153;BME280;10734;44.792;20.482;2022-07-23T01:07:14;99872.72;;;25.95;45.96
21153;BME280;10734;44.792;20.482;2022-07-23T01:09:43;99874.22;;;26.03;45.68
21153;BME280;10734;44.792;20.482;2022-07-23T01:12:11;99882.41;;;25.97;45.95
21153;BME280;10734;44.792;20.482;2022-07-23T01:14:38;99882.56;;;25.91;45.73
21153;BME280;10734;44.792;20.482;2022-07-23T01:17:05;99882.25;;;25.87;45.30
21153;BME280;10734;44.792;20.482;2022-07-23T01:19:32;99879.50;;;25.87;45.87
21153;BME280;10734;44.792;20.482;2022-07-23T01:22:01;99873.72;;;25.89;45.42
21153;BME280;10734;44.792;20.482;2022-07-23T01:24:28;99878.41;;;25.88;44.69
21153;BME280;10734;44.792;20.482;2022-07-23T01:26:56;99881.41;;;25.87;44.62
21153;BME280;10734;44.792;20.482;2022-07-23T01:29:23;99876.50;;;25.89;43.65
21153;BME280;10734;44.792;20.482;2022-07-23T01:31:50;99885.59;;;25.89;43.89
21153;BME280;10734;44.792;20.482;2022-07-23T01:34:17;99873.72;;;25.89;43.70
21153;BME280;10734;44.792;20.482;2022-07-23T01:36:44;99876.25;;;25.90;43.45
21153;BME280;10734;44.792;20.482;2022-07-23T01:39:11;99871.28;;;25.92;43.41
21153;BME280;10734;44.792;20.482;2022-07-23T01:41:38;99882.88;;;25.94;43.40
21153;BME280;10734;44.792;20.482;2022-07-23T01:44:05;99879.88;;;25.96;43.59
21153;BME280;10734;44.792;20.482;2022-07-23T01:46:32;99877.06;;;25.91;43.06
21153;BME280;10734;44.792;20.482;2022-07-23T01:48:58;99885.47;;;25.79;44.28
21153;BME280;10734;44.792;20.482;2022-07-23T01:51:26;99889.31;;;25.78;44.36
21153;BME280;10734;44.792;20.482;2022-07-23T01:53:52;99887.63;;;25.77;45.02
21153;BME280;10734;44.792;20.482;2022-07-23T01:56:19;99883.47;;;25.74;45.14
21153;BME280;10734;44.792;20.482;2022-07-23T01:58:48;99880.84;;;25.62;46.02
21153;BME280;10734;44.792;20.482;2022-07-23T02:01:15;99887.72;;;25.43;46.92
21153;BME280;10734;44.792;20.482;2022-07-23T02:03:42;99884.06;;;25.37;47.17
21153;BME280;10734;44.792;20.482;2022-07-23T02:06:09;99874.38;;;25.35;47.89
21153;BME280;10734;44.792;20.482;2022-07-23T02:08:35;99877.88;;;25.30;48.07
21153;BME280;10734;44.792;20.482;2022-07-23T02:11:02;99874.19;;;25.24;49.10
21153;BME280;10734;44.792;20.482;2022-07-23T02:13:29;99871.22;;;25.09;49.87
21153;BME280;10734;44.792;20.482;2022-07-23T02:15:59;99875.53;;;25.05;50.19
21153;BME280;10734;44.792;20.482;2022-07-23T02:18:26;99872.53;;;24.89;50.85
21153;BME280;10734;44.792;20.482;2022-07-23T02:20:53;99875.34;;;24.61;51.74
21153;BME280;10734;44.792;20.482;2022-07-23T02:23:20;99873.19;;;24.63;51.54
21153;BME280;10734;44.792;20.482;2022-07-23T02:25:46;99872.00;;;24.58;51.72
21153;BME280;10734;44.792;20.482;2022-07-23T02:28:14;99871.81;;;24.48;51.58
21153;BME280;10734;44.792;20.482;2022-07-23T02:30:41;99878.09;;;24.32;52.73
21153;BME280;10734;44.792;20.482;2022-07-23T02:33:09;99875.09;;;24.33;52.98
21153;BME280;10734;44.792;20.482;2022-07-23T02:35:36;99874.06;;;24.51;52.46
21153;BME280;10734;44.792;20.482;2022-07-23T02:38:02;99869.34;;;24.64;52.08
21153;BME280;10734;44.792;20.482;2022-07-23T02:40:29;99870.69;;;24.78;51.42
21153;BME280;10734;44.792;20.482;2022-07-23T02:42:56;99865.19;;;24.78;50.59
21153;BME280;10734;44.792;20.482;2022-07-23T02:45:22;99872.19;;;24.69;50.89
21153;BME280;10734;44.792;20.482;2022-07-23T02:47:49;99863.63;;;24.53;51.00
21153;BME280;10734;44.792;20.482;2022-07-23T02:50:16;99869.91;;;24.37;50.84
21153;BME280;10734;44.792;20.482;2022-07-23T02:52:42;99874.25;;;24.33;50.93
21153;BME280;10734;44.792;20.482;2022-07-23T02:55:09;99873.75;;;24.36;50.78
21153;BME280;10734;44.792;20.482;2022-07-23T02:57:37;99870.81;;;24.54;49.82
21153;BME280;10734;44.792;20.482;2022-07-23T03:00:05;99866.00;;;24.62;49.61
21153;BME280;10734;44.792;20.482;2022-07-23T03:02:32;99871.38;;;24.68;49.00
21153;BME280;10734;44.792;20.482;2022-07-23T03:04:59;99865.38;;;24.71;48.92
21153;BME280;10734;44.792;20.482;2022-07-23T03:07:26;99868.25;;;24.65;48.41
21153;BME280;10734;44.792;20.482;2022-07-23T03:09:52;99868.84;;;24.67;48.71
21153;BME280;10734;44.792;20.482;2022-07-23T03:12:19;99870.19;;;24.81;48.52
21153;BME280;10734;44.792;20.482;2022-07-23T03:14:46;99871.72;;;24.89;48.25
21153;BME280;10734;44.792;20.482;2022-07-23T03:17:12;99871.28;;;24.97;47.99
21153;BME280;10734;44.792;20.482;2022-07-23T03:19:39;99879.03;;;25.00;47.70
21153;BME280;10734;44.792;20.482;2022-07-23T03:22:06;99875.34;;;24.94;47.89
21153;BME280;10734;44.792;20.482;2022-07-23T03:24:33;99875.59;;;24.76;48.51
21153;BME280;10734;44.792;20.482;2022-07-23T03:27:18;99876.81;;;24.51;49.24
21153;BME280;10734;44.792;20.482;2022-07-23T03:29:45;99879.44;;;24.46;49.57
21153;BME280;10734;44.792;20.482;2022-07-23T03:32:11;99892.28;;;24.40;50.05
21153;BME280;10734;44.792;20.482;2022-07-23T03:34:39;99882.31;;;24.51;50.04
21153;BME280;10734;44.792;20.482;2022-07-23T03:37:07;99883.19;;;24.69;49.65
21153;BME280;10734;44.792;20.482;2022-07-23T03:39:34;99880.34;;;24.81;49.45
21153;BME280;10734;44.792;20.482;2022-07-23T03:42:00;99883.53;;;24.89;49.40
21153;BME280;10734;44.792;20.482;2022-07-23T03:44:27;99891.38;;;24.98;49.11
21153;BME280;10734;44.792;20.482;2022-07-23T03:46:54;99885.38;;;25.01;49.19
21153;BME280;10734;44.792;20.482;2022-07-23T03:49:21;99890.31;;;24.99;48.57
21153;BME280;10734;44.792;20.482;2022-07-23T03:51:48;99892.78;;;24.83;48.84
21153;BME280;10734;44.792;20.482;2022-07-23T03:54:14;99891.03;;;24.77;49.79
21153;BME280;10734;44.792;20.482;2022-07-23T03:56:41;99889.72;;;24.97;49.23
21153;BME280;10734;44.792;20.482;2022-07-23T03:59:09;99886.72;;;25.15;48.70
21153;BME280;10734;44.792;20.482;2022-07-23T04:01:36;99885.78;;;25.26;48.37
21153;BME280;10734;44.792;20.482;2022-07-23T04:04:03;99889.22;;;25.34;48.13
21153;BME280;10734;44.792;20.482;2022-07-23T04:06:30;99888.22;;;25.40;47.80
21153;BME280;10734;44.792;20.482;2022-07-23T04:08:57;99889.38;;;25.44;47.18
21153;BME280;10734;44.792;20.482;2022-07-23T04:11:24;99885.91;;;25.32;45.62
21153;BME280;10734;44.792;20.482;2022-07-23T04:13:51;99889.88;;;25.24;46.34
21153;BME280;10734;44.792;20.482;2022-07-23T04:16:18;99889.72;;;25.30;47.01
21153;BME280;10734;44.792;20.482;2022-07-23T04:18:45;99891.06;;;25.45;46.22
21153;BME280;10734;44.792;20.482;2022-07-23T04:21:11;99891.06;;;25.45;46.03
21153;BME280;10734;44.792;20.482;2022-07-23T04:23:38;99888.19;;;25.57;45.85
21153;BME280;10734;44.792;20.482;2022-07-23T04:26:05;99889.25;;;25.73;45.46
21153;BME280;10734;44.792;20.482;2022-07-23T04:28:31;99888.66;;;25.71;45.40
21153;BME280;10734;44.792;20.482;2022-07-23T04:30:58;99878.91;;;25.85;45.21
21153;BME280;10734;44.792;20.482;2022-07-23T04:33:25;99878.56;;;25.98;44.43
21153;BME280;10734;44.792;20.482;2022-07-23T04:35:52;99879.53;;;26.09;44.65
21153;BME280;10734;44.792;20.482;2022-07-23T04:38:19;99871.13;;;26.21;44.05
21153;BME280;10734;44.792;20.482;2022-07-23T04:40:45;99877.31;;;26.33;43.84
21153;BME280;10734;44.792;20.482;2022-07-23T04:43:12;99876.34;;;26.45;43.78
21153;BME280;10734;44.792;20.482;2022-07-23T04:45:39;99884.66;;;26.50;43.58
21153;BME280;10734;44.792;20.482;2022-07-23T04:48:06;99879.66;;;26.47;43.50
21153;BME280;10734;44.792;20.482;2022-07-23T04:50:33;99877.88;;;26.35;44.37
21153;BME280;10734;44.792;20.482;2022-07-23T04:52:59;99883.94;;;26.32;44.93
21153;BME280;10734;44.792;20.482;2022-07-23T04:55:26;99884.44;;;26.29;45.34
21153;BME280;10734;44.792;20.482;2022-07-23T04:57:53;99879.53;;;26.36;44.65
21153;BME280;10734;44.792;20.482;2022-07-23T05:00:19;99877.28;;;26.55;44.42
21153;BME280;10734;44.792;20.482;2022-07-23T05:02:46;99881.66;;;26.79;44.18
21153;BME280;10734;44.792;20.482;2022-07-23T05:05:13;99885.69;;;26.98;43.61
21153;BME280;10734;44.792;20.482;2022-07-23T05:07:39;99886.38;;;27.16;42.84
21153;BME280;10734;44.792;20.482;2022-07-23T05:10:06;99881.56;;;27.33;42.60
21153;BME280;10734;44.792;20.482;2022-07-23T05:12:33;99885.47;;;27.42;41.84
21153;BME280;10734;44.792;20.482;2022-07-23T05:15:00;99884.75;;;27.62;42.69
21153;BME280;10734;44.792;20.482;2022-07-23T05:17:27;99894.56;;;27.86;42.32
21153;BME280;10734;44.792;20.482;2022-07-23T05:19:53;99893.25;;;27.98;42.66
21153;BME280;10734;44.792;20.482;2022-07-23T05:22:25;99885.88;;;28.25;42.07
21153;BME280;10734;44.792;20.482;2022-07-23T05:24:52;99889.81;;;28.49;42.24
21153;BME280;10734;44.792;20.482;2022-07-23T05:27:18;99892.09;;;28.73;40.80
21153;BME280;10734;44.792;20.482;2022-07-23T05:29:45;99894.34;;;28.92;40.59
21153;BME280;10734;44.792;20.482;2022-07-23T05:32:12;99894.91;;;28.99;40.08
21153;BME280;10734;44.792;20.482;2022-07-23T05:34:39;99895.97;;;29.03;39.68
21153;BME280;10734;44.792;20.482;2022-07-23T05:37:05;99904.84;;;29.15;39.37
21153;BME280;10734;44.792;20.482;2022-07-23T05:39:32;99898.22;;;29.21;38.74
21153;BME280;10734;44.792;20.482;2022-07-23T05:41:59;99899.06;;;29.27;38.44
21153;BME280;10734;44.792;20.482;2022-07-23T05:44:26;99904.84;;;29.46;38.29
21153;BME280;10734;44.792;20.482;2022-07-23T05:47:00;99898.13;;;29.73;37.29
21153;BME280;10734;44.792;20.482;2022-07-23T05:49:27;99898.63;;;30.01;37.31
21153;BME280;10734;44.792;20.482;2022-07-23T05:51:53;99910.72;;;30.25;36.53
21153;BME280;10734;44.792;20.482;2022-07-23T05:54:20;99901.13;;;30.57;36.08
21153;BME280;10734;44.792;20.482;2022-07-23T05:56:47;99907.13;;;30.75;35.28
21153;BME280;10734;44.792;20.482;2022-07-23T05:59:13;99906.97;;;30.95;34.67
21153;BME280;10734;44.792;20.482;2022-07-23T06:01:41;99894.03;;;31.15;34.40
21153;BME280;10734;44.792;20.482;2022-07-23T06:04:09;99906.16;;;31.29;33.28
21153;BME280;10734;44.792;20.482;2022-07-23T06:06:36;99904.28;;;31.49;33.40
21153;BME280;10734;44.792;20.482;2022-07-23T06:09:03;99903.56;;;31.67;34.10
21153;BME280;10734;44.792;20.482;2022-07-23T06:11:30;99905.34;;;31.53;33.83
21153;BME280;10734;44.792;20.482;2022-07-23T06:13:57;99904.06;;;31.69;34.34
21153;BME280;10734;44.792;20.482;2022-07-23T06:16:24;99899.47;;;31.84;33.00
21153;BME280;10734;44.792;20.482;2022-07-23T06:18:51;99899.59;;;31.98;32.47
21153;BME280;10734;44.792;20.482;2022-07-23T06:21:17;99895.44;;;31.95;32.59
21153;BME280;10734;44.792;20.482;2022-07-23T06:24:04;99903.47;;;32.21;31.73
21153;BME280;10734;44.792;20.482;2022-07-23T06:26:31;99904.53;;;32.25;31.81
21153;BME280;10734;44.792;20.482;2022-07-23T06:28:57;99896.09;;;32.30;32.17
21153;BME280;10734;44.792;20.482;2022-07-23T06:31:25;99895.81;;;32.32;31.29
21153;BME280;10734;44.792;20.482;2022-07-23T06:33:52;99901.97;;;32.10;30.21
21153;BME280;10734;44.792;20.482;2022-07-23T06:36:18;99899.53;;;32.46;30.06
21153;BME280;10734;44.792;20.482;2022-07-23T06:38:46;99898.53;;;32.94;29.89
21153;BME280;10734;44.792;20.482;2022-07-23T06:41:14;99898.88;;;33.39;29.22
21153;BME280;10734;44.792;20.482;2022-07-23T06:43:41;99898.75;;;33.77;28.96
21153;BME280;10734;44.792;20.482;2022-07-23T06:46:08;99907.44;;;33.90;27.32
21153;BME280;10734;44.792;20.482;2022-07-23T06:48:34;99906.13;;;33.40;28.55
21153;BME280;10734;44.792;20.482;2022-07-23T06:51:02;99907.41;;;33.62;28.08
21153;BME280;10734;44.792;20.482;2022-07-23T06:53:29;99906.19;;;33.96;28.31
21153;BME280;10734;44.792;20.482;2022-07-23T06:55:56;99900.38;;;34.20;27.30
21153;BME280;10734;44.792;20.482;2022-07-23T06:58:22;99912.16;;;34.45;27.36
21153;BME280;10734;44.792;20.482;2022-07-23T07:00:49;99914.31;;;34.84;26.71
21153;BME280;10734;44.792;20.482;2022-07-23T07:03:16;99901.38;;;35.11;26.22
21153;BME280;10734;44.792;20.482;2022-07-23T07:05:44;99905.50;;;35.45;26.31
21153;BME280;10734;44.792;20.482;2022-07-23T07:08:11;99905.03;;;35.43;25.64
21153;BME280;10734;44.792;20.482;2022-07-23T07:10:37;99901.16;;;35.61;25.44
21153;BME280;10734;44.792;20.482;2022-07-23T07:13:04;99904.22;;;35.83;25.32
21153;BME280;10734;44.792;20.482;2022-07-23T07:15:31;99906.28;;;36.08;26.74
21153;BME280;10734;44.792;20.482;2022-07-23T07:17:57;99905.75;;;35.97;29.88
21153;BME280;10734;44.792;20.482;2022-07-23T07:20:24;99892.38;;;35.54;33.87
21153;BME280;10734;44.792;20.482;2022-07-23T07:22:51;99898.00;;;35.54;34.31
21153;BME280;10734;44.792;20.482;2022-07-23T07:25:18;99901.78;;;35.81;35.60
21153;BME280;10734;44.792;20.482;2022-07-23T07:27:44;99904.34;;;35.69;37.25
21153;BME280;10734;44.792;20.482;2022-07-23T07:30:11;99904.53;;;35.41;37.67
21153;BME280;10734;44.792;20.482;2022-07-23T07:32:39;99896.84;;;35.55;39.03
21153;BME280;10734;44.792;20.482;2022-07-23T07:35:23;99898.94;;;35.41;38.30
21153;BME280;10734;44.792;20.482;2022-07-23T07:37:50;99892.91;;;35.02;39.32
21153;BME280;10734;44.792;20.482;2022-07-23T07:40:16;99894.75;;;35.07;39.62
21153;BME280;10734;44.792;20.482;2022-07-23T07:42:47;99892.81;;;34.71;39.62
21153;BME280;10734;44.792;20.482;2022-07-23T07:45:14;99896.66;;;34.98;39.00
21153;BME280;10734;44.792;20.482;2022-07-23T07:47:42;99893.34;;;35.41;38.50
21153;BME280;10734;44.792;20.482;2022-07-23T07:50:09;99896.91;;;35.73;37.44
21153;BME280;10734;44.792;20.482;2022-07-23T07:52:38;99900.44;;;35.87;36.38
21153;BME280;10734;44.792;20.482;2022-07-23T07:55:07;99899.47;;;35.83;36.48
21153;BME280;10734;44.792;20.482;2022-07-23T07:57:37;99892.38;;;35.86;36.35
21153;BME280;10734;44.792;20.482;2022-07-23T08:00:05;99899.72;;;35.73;36.01
21153;BME280;10734;44.792;20.482;2022-07-23T08:02:59;99897.81;;;35.82;35.96
21153;BME280;10734;44.792;20.482;2022-07-23T08:05:30;99897.19;;;36.03;34.68
21153;BME280;10734;44.792;20.482;2022-07-23T08:07:58;99897.03;;;35.99;34.28
21153;BME280;10734;44.792;20.482;2022-07-23T08:10:29;99891.03;;;36.41;34.54
21153;BME280;10734;44.792;20.482;2022-07-23T08:12:58;99891.91;;;36.76;33.18
21153;BME280;10734;44.792;20.482;2022-07-23T08:15:28;99892.69;;;36.94;32.43
21153;BME280;10734;44.792;20.482;2022-07-23T08:17:56;99891.03;;;36.93;31.61
21153;BME280;10734;44.792;20.482;2022-07-23T08:20:24;99890.06;;;36.89;31.15
21153;BME280;10734;44.792;20.482;2022-07-23T08:22:54;99887.75;;;36.56;32.19
21153;BME280;10734;44.792;20.482;2022-07-23T08:27:50;99891.25;;;37.53;31.35
21153;BME280;10734;44.792;20.482;2022-07-23T08:30:17;99892.88;;;37.71;31.48
21153;BME280;10734;44.792;20.482;2022-07-23T08:32:49;99890.97;;;37.84;31.20
21153;BME280;10734;44.792;20.482;2022-07-23T08:35:18;99891.00;;;38.05;30.59
21153;BME280;10734;44.792;20.482;2022-07-23T08:37:45;99887.44;;;37.96;30.85
21153;BME280;10734;44.792;20.482;2022-07-23T08:40:11;99889.81;;;38.15;30.67
21153;BME280;10734;44.792;20.482;2022-07-23T08:42:39;99890.63;;;38.16;31.21
21153;BME280;10734;44.792;20.482;2022-07-23T08:45:07;99886.44;;;37.62;31.33
21153;BME280;10734;44.792;20.482;2022-07-23T08:47:36;99882.66;;;37.58;30.89
21153;BME280;10734;44.792;20.482;2022-07-23T08:50:04;99888.88;;;37.72;31.56
21153;BME280;10734;44.792;20.482;2022-07-23T08:52:34;99883.75;;;38.04;30.35
21153;BME280;10734;44.792;20.482;2022-07-23T08:55:01;99882.50;;;37.93;29.53
21153;BME280;10734;44.792;20.482;2022-07-23T08:57:28;99880.19;;;38.25;29.70
21153;BME280;10734;44.792;20.482;2022-07-23T08:59:56;99880.25;;;38.37;29.21
21153;BME280;10734;44.792;20.482;2022-07-23T09:02:22;99868.06;;;37.73;28.99
21153;BME280;10734;44.792;20.482;2022-07-23T09:04:49;99873.66;;;37.35;29.60
21153;BME280;10734;44.792;20.482;2022-07-23T09:07:16;99873.81;;;37.38;29.94
21153;BME280;10734;44.792;20.482;2022-07-23T09:09:43;99876.13;;;37.36;29.25
21153;BME280;10734;44.792;20.482;2022-07-23T09:12:10;99876.25;;;37.49;29.63
21153;BME280;10734;44.792;20.482;2022-07-23T09:14:45;99883.00;;;37.48;29.83
21153;BME280;10734;44.792;20.482;2022-07-23T09:17:16;99880.50;;;37.55;28.96
21153;BME280;10734;44.792;20.482;2022-07-23T09:19:45;99882.78;;;37.70;29.57
21153;BME280;10734;44.792;20.482;2022-07-23T09:22:24;99885.16;;;38.19;28.88
21153;BME280;10734;44.792;20.482;2022-07-23T09:27:58;99878.53;;;39.21;27.22
21153;BME280;10734;44.792;20.482;2022-07-23T09:30:28;99875.78;;;38.78;28.12
21153;BME280;10734;44.792;20.482;2022-07-23T09:35:50;99864.22;;;38.59;28.02
21153;BME280;10734;44.792;20.482;2022-07-23T09:38:20;99867.09;;;38.50;28.89
21153;BME280;10734;44.792;20.482;2022-07-23T09:41:05;99865.50;;;39.16;27.44
21153;BME280;10734;44.792;20.482;2022-07-23T09:43:34;99860.81;;;39.20;27.89
21153;BME280;10734;44.792;20.482;2022-07-23T09:46:27;99870.56;;;39.23;26.01
21153;BME280;10734;44.792;20.482;2022-07-23T09:48:55;99868.53;;;39.81;26.10
21153;BME280;10734;44.792;20.482;2022-07-23T09:51:25;99868.88;;;39.67;25.33
21153;BME280;10734;44.792;20.482;2022-07-23T09:53:54;99860.63;;;39.37;25.83
21153;BME280;10734;44.792;20.482;2022-07-23T09:56:21;99863.47;;;39.04;26.56
21153;BME280;10734;44.792;20.482;2022-07-23T09:58:53;99855.94;;;38.96;25.89
21153;BME280;10734;44.792;20.482;2022-07-23T10:01:50;99864.63;;;39.36;26.44
21153;BME280;10734;44.792;20.482;2022-07-23T10:04:18;99863.38;;;39.71;25.28
21153;BME280;10734;44.792;20.482;2022-07-23T10:06:45;99862.25;;;40.25;24.65
21153;BME280;10734;44.792;20.482;2022-07-23T10:09:16;99861.47;;;39.87;25.09
21153;BME280;10734;44.792;20.482;2022-07-23T10:11:44;99851.78;;;40.38;24.33
21153;BME280;10734;44.792;20.482;2022-07-23T10:14:11;99849.59;;;40.59;23.47
21153;BME280;10734;44.792;20.482;2022-07-23T10:16:38;99851.19;;;40.73;23.40
21153;BME280;10734;44.792;20.482;2022-07-23T10:19:06;99847.00;;;40.95;22.79
21153;BME280;10734;44.792;20.482;2022-07-23T10:21:46;99844.13;;;40.79;22.64
21153;BME280;10734;44.792;20.482;2022-07-23T10:30:07;99832.00;;;41.07;22.76
21153;BME280;10734;44.792;20.482;2022-07-23T10:35:37;99838.22;;;41.60;22.20
21153;BME280;10734;44.792;20.482;2022-07-23T10:41:11;99827.50;;;41.50;21.84
21153;BME280;10734;44.792;20.482;2022-07-23T10:43:39;99822.16;;;41.01;21.92
21153;BME280;10734;44.792;20.482;2022-07-23T10:46:25;99824.72;;;40.77;22.05
21153;BME280;10734;44.792;20.482;2022-07-23T10:49:23;99819.69;;;41.15;21.51
21153;BME280;10734;44.792;20.482;2022-07-23T10:54:42;99806.81;;;41.97;20.76
21153;BME280;10734;44.792;20.482;2022-07-23T10:57:11;99805.69;;;42.57;20.66
21153;BME280;10734;44.792;20.482;2022-07-23T11:02:29;99797.00;;;42.89;18.98
21153;BME280;10734;44.792;20.482;2022-07-23T11:05:03;99792.53;;;43.34;19.16
21153;BME280;10734;44.792;20.482;2022-07-23T11:07:30;99795.19;;;43.47;18.46
21153;BME280;10734;44.792;20.482;2022-07-23T11:09:57;99798.78;;;43.70;18.48
21153;BME280;10734;44.792;20.482;2022-07-23T11:15:10;99793.22;;;43.77;18.13
21153;BME280;10734;44.792;20.482;2022-07-23T11:17:39;99788.00;;;43.53;18.00
21153;BME280;10734;44.792;20.482;2022-07-23T11:20:23;99785.28;;;43.87;17.94
21153;BME280;10734;44.792;20.482;2022-07-23T11:22:54;99777.50;;;44.10;18.23
21153;BME280;10734;44.792;20.482;2022-07-23T11:27:48;99778.28;;;44.75;16.98
21153;BME280;10734;44.792;20.482;2022-07-23T11:35:43;99771.22;;;43.67;17.96
21153;BME280;10734;44.792;20.482;2022-07-23T11:38:22;99759.38;;;44.53;17.82
21153;BME280;10734;44.792;20.482;2022-07-23T11:40:52;99768.03;;;45.01;17.16
21153;BME280;10734;44.792;20.482;2022-07-23T11:43:19;99768.78;;;44.98;16.95
21153;BME280;10734;44.792;20.482;2022-07-23T11:45:49;99764.13;;;45.20;16.96
21153;BME280;10734;44.792;20.482;2022-07-23T11:48:22;99763.66;;;45.66;16.64
21153;BME280;10734;44.792;20.482;2022-07-23T11:50:49;99762.13;;;45.83;16.28
21153;BME280;10734;44.792;20.482;2022-07-23T11:53:28;99751.59;;;45.84;17.24
21153;BME280;10734;44.792;20.482;2022-07-23T11:56:03;99749.22;;;45.97;16.61
21153;BME280;10734;44.792;20.482;2022-07-23T11:58:30;99748.38;;;45.92;16.63
21153;BME280;10734;44.792;20.482;2022-07-23T12:00:57;99743.94;;;45.99;16.27
21153;BME280;10734;44.792;20.482;2022-07-23T12:03:24;99747.56;;;45.88;15.71
21153;BME280;10734;44.792;20.482;2022-07-23T12:05:56;99738.63;;;45.90;16.45
21153;BME280;10734;44.792;20.482;2022-07-23T12:08:23;99741.88;;;45.92;16.33
21153;BME280;10734;44.792;20.482;2022-07-23T12:10:50;99743.47;;;45.82;16.60
21153;BME280;10734;44.792;20.482;2022-07-23T12:13:20;99739.59;;;46.19;16.72
21153;BME280;10734;44.792;20.482;2022-07-23T12:15:51;99732.28;;;46.25;15.67
21153;BME280;10734;44.792;20.482;2022-07-23T12:18:21;99736.38;;;46.32;15.86
21153;BME280;10734;44.792;20.482;2022-07-23T12:20:53;99734.97;;;45.93;15.87
21153;BME280;10734;44.792;20.482;2022-07-23T12:23:21;99731.09;;;45.56;16.28
21153;BME280;10734;44.792;20.482;2022-07-23T12:25:50;99730.91;;;45.28;16.44
21153;BME280;10734;44.792;20.482;2022-07-23T12:28:29;99720.56;;;45.61;15.87
21153;BME280;10734;44.792;20.482;2022-07-23T12:30:58;99727.38;;;44.97;16.10
21153;BME280;10734;44.792;20.482;2022-07-23T12:35:59;99721.56;;;44.07;16.97
21153;BME280;10734;44.792;20.482;2022-07-23T12:38:28;99718.03;;;44.55;16.46
21153;BME280;10734;44.792;20.482;2022-07-23T12:41:02;99723.03;;;44.62;16.67
21153;BME280;10734;44.792;20.482;2022-07-23T12:43:35;99714.34;;;44.89;16.22
21153;BME280;10734;44.792;20.482;2022-07-23T12:48:31;99704.88;;;44.36;15.63
21153;BME280;10734;44.792;20.482;2022-07-23T12:53:32;99701.63;;;44.00;15.63
21153;BME280;10734;44.792;20.482;2022-07-23T12:56:11;99708.34;;;42.85;15.82
21153;BME280;10734;44.792;20.482;2022-07-23T13:04:10;99699.16;;;42.68;16.00
21153;BME280;10734;44.792;20.482;2022-07-23T13:06:50;99698.06;;;43.23;16.55
21153;BME280;10734;44.792;20.482;2022-07-23T13:09:19;99694.81;;;44.08;15.43
21153;BME280;10734;44.792;20.482;2022-07-23T13:11:47;99686.94;;;44.62;15.38
21153;BME280;10734;44.792;20.482;2022-07-23T13:14:17;99694.94;;;44.98;14.85
21153;BME280;10734;44.792;20.482;2022-07-23T13:16:48;99687.53;;;44.07;15.03
21153;BME280;10734;44.792;20.482;2022-07-23T13:19:15;99687.09;;;43.44;15.61
21153;BME280;10734;44.792;20.482;2022-07-23T13:21:45;99677.16;;;43.58;15.65
21153;BME280;10734;44.792;20.482;2022-07-23T13:24:13;99684.19;;;42.91;16.15
21153;BME280;10734;44.792;20.482;2022-07-23T13:26:40;99681.94;;;43.00;15.74
21153;BME280;10734;44.792;20.482;2022-07-23T13:29:07;99680.31;;;42.99;15.15
21153;BME280;10734;44.792;20.482;2022-07-23T13:31:37;99666.66;;;42.82;15.27
21153;BME280;10734;44.792;20.482;2022-07-23T13:34:05;99675.06;;;42.55;15.41
21153;BME280;10734;44.792;20.482;2022-07-23T13:36:34;99664.00;;;43.42;15.86
21153;BME280;10734;44.792;20.482;2022-07-23T13:39:02;99671.34;;;44.11;14.63
21153;BME280;10734;44.792;20.482;2022-07-23T13:41:30;99673.22;;;43.66;14.37
21153;BME280;10734;44.792;20.482;2022-07-23T13:43:57;99663.31;;;42.99;14.60
21153;BME280;10734;44.792;20.482;2022-07-23T13:46:24;99661.59;;;43.44;14.93